MSC Claudia — 3FZA6 — position and weather

sailwx.info

Track history (hours):
 
Tides and Currents Weather Stations Pressure Air Temp Water Temp Dewpoint Dewpoint Depression Visibility Wind Speed Wind Dir Waves Ship Positions

MSC Claudia

Last reported at 2014-Oct-30 07:21 UTC. Time now 2014-Oct-30 19:04 UTC.
Position N 43°10' E 009°36'.

Length 292 m; draft 8.9 m.

Type: Ship (hazmat cat A). MMSI: 370606000.

Date/timePositionNaut miles runAvg speedWind from/ knotsBaromVisibWave heightAir tempDewpointWater temp
2014-Oct-30 07:21N 43°10' E 009°36'1519.2
2014-Oct-30 06:33N 43°26' E 009°34'1818.4
2014-Oct-30 05:34N 43°42' E 009°45'1616.2
2014-Oct-30 04:33N 43°58' E 009°52'9 8.7
2014-Oct-30 03:31N 44°06' E 009°51'0 0.0
2014-Oct-30 02:33N 44°06' E 009°51'0 0.0
2014-Oct-30 01:33N 44°06' E 009°51'0 0.0
2014-Oct-30 00:33N 44°06' E 009°51'0 0.0
2014-Oct-29 23:33N 44°06' E 009°51'0 0.0
2014-Oct-29 22:33N 44°06' E 009°51'0 0.0
2014-Oct-29 21:33N 44°06' E 009°51'0 0.0
2014-Oct-29 20:33N 44°06' E 009°51'0 0.0
2014-Oct-29 19:33N 44°06' E 009°51'0 0.0
2014-Oct-29 18:33N 44°06' E 009°51'0 0.0
2014-Oct-29 17:33N 44°06' E 009°51'0 0.0
2014-Oct-29 16:33N 44°06' E 009°51'0 0.0
2014-Oct-29 15:33N 44°06' E 009°51'0 0.0
2014-Oct-29 14:33N 44°06' E 009°51'2 1.8
2014-Oct-29 13:33N 44°05' E 009°51'3 3.1
2014-Oct-29 12:32N 44°02' E 009°54'0 0.0
2014-Oct-29 11:32N 44°02' E 009°54'0 0.0
2014-Oct-29 10:32N 44°02' E 009°54'0 0.2
2014-Oct-29 09:32N 44°02' E 009°54'0 0.0
2014-Oct-29 08:32N 44°02' E 009°54'0 0.0
2014-Oct-29 07:32N 44°02' E 009°54'0 0.0
2014-Oct-29 06:32N 44°02' E 009°54'0 0.0
2014-Oct-29 05:32N 44°02' E 009°54'0 0.0
2014-Oct-29 04:32N 44°02' E 009°54'0 0.0
2014-Oct-29 03:32N 44°02' E 009°54'0 0.0
2014-Oct-29 02:32N 44°02' E 009°54'0 0.0
2014-Oct-29 01:32N 44°02' E 009°54'0 0.0
2014-Oct-29 00:32N 44°02' E 009°54'0 0.0
2014-Oct-28 23:32N 44°02' E 009°54'0 0.0
2014-Oct-28 22:32N 44°02' E 009°54'5 4.8
2014-Oct-28 21:33N 43°58' E 009°57'10 9.8
2014-Oct-28 20:33N 43°53' E 009°45'1312.6
2014-Oct-28 19:33N 43°48' E 009°29'1313.0
2014-Oct-28 18:33N 43°44' E 009°12'1313.0
2014-Oct-28 17:33N 43°39' E 008°55'1312.8
2014-Oct-28 16:33N 43°32' E 008°40'7311.6
2014-Oct-28 10:13N 42°51' E 007°17'812.1
2014-Oct-28 09:33N 42°47' E 007°07'14918.6
2014-Oct-28 01:33N 41°25' E 004°20'4220.1
2014-Oct-27 23:28N 41°02' E 003°33'1819.9
2014-Oct-27 22:33N 40°52' E 003°13'2020.0
2014-Oct-27 21:34N 40°41' E 002°51'2020.1
2014-Oct-27 20:33N 40°30' E 002°29'2019.8
2014-Oct-27 19:33N 40°19' E 002°07'2019.9
2014-Oct-27 18:33N 40°08' E 001°46'2020.0
2014-Oct-27 17:33N 39°57' E 001°24'1919.4
2014-Oct-27 16:34N 39°47' E 001°03'6318.5
2014-Oct-27 13:09N 39°25' W 000°14'4 7.1
2014-Oct-27 12:33N 39°26' W 000°19'0 0.1
2014-Oct-27 11:33N 39°26' W 000°19'0 0.0
2014-Oct-27 10:27N 39°26' W 000°19'0 0.0
2014-Oct-27 09:33N 39°26' W 000°19'0 0.0
2014-Oct-27 08:33N 39°26' W 000°19'0 0.0
2014-Oct-27 07:32N 39°26' W 000°19'0 0.5
2014-Oct-27 06:31N 39°26' W 000°19'0 0.0
2014-Oct-27 05:31N 39°26' W 000°19'0 0.0
2014-Oct-27 04:31N 39°26' W 000°19'0 0.0
2014-Oct-27 03:31N 39°26' W 000°19'0 0.0
2014-Oct-27 02:34N 39°26' W 000°19'0 0.0
2014-Oct-27 01:30N 39°26' W 000°19'0 0.0
2014-Oct-27 00:24N 39°26' W 000°19'0 0.0
2014-Oct-26 23:30N 39°26' W 000°19'0 0.0
2014-Oct-26 22:33N 39°26' W 000°19'0 0.0
2014-Oct-26 21:33N 39°26' W 000°19'0 0.0
2014-Oct-26 20:30N 39°26' W 000°19'0 0.0
2014-Oct-26 19:33N 39°26' W 000°19'0 0.0
2014-Oct-26 18:30N 39°26' W 000°19'0 0.0
2014-Oct-26 17:30N 39°26' W 000°19'0 0.0
2014-Oct-26 16:33N 39°26' W 000°19'0 0.0
2014-Oct-26 15:33N 39°26' W 000°19'0 0.0
2014-Oct-26 14:30N 39°26' W 000°19'0 0.0
2014-Oct-26 13:33N 39°26' W 000°19'0 0.0
2014-Oct-26 12:33N 39°26' W 000°19'0 0.0
2014-Oct-26 11:33N 39°26' W 000°19'3 3.0
2014-Oct-26 10:33N 39°25' W 000°15'5714.3
2014-Oct-26 06:33N 38°35' E 000°22'4318.4
2014-Oct-26 04:12N 37°59' W 000°09'1218.2
2014-Oct-26 03:33N 37°49' W 000°17'1818.1
2014-Oct-26 02:33N 37°34' W 000°30'1817.8
2014-Oct-26 01:33N 37°22' W 000°46'22618.1
2014-Oct-25 13:03N 35°60' W 005°09'1019.6
2014-Oct-25 12:33N 35°58' W 005°21'20317.8
2014-Oct-25 01:11N 36°18' W 009°31'1218.7
2014-Oct-25 00:33N 36°23' W 009°44'3718.7
2014-Oct-24 22:33N 36°40' W 010°26'1919.2
2014-Oct-24 21:33N 36°48' W 010°47'3818.9
2014-Oct-24 19:33N 37°05' W 011°30'1918.8
2014-Oct-24 18:33N 37°13' W 011°51'  
Track history (hours):
 
Tides and Currents Weather Stations Pressure Air Temp Water Temp Dewpoint Dewpoint Depression Visibility Wind Speed Wind Dir Waves Ship Positions

MSC Claudia

Last reported at 2014-Oct-30 07:21 UTC. Time now 2014-Oct-30 19:04 UTC.
Position N 43°10' E 009°36'.

Length 292 m; draft 8.9 m.

Type: Ship (hazmat cat A). MMSI: 370606000.

Date/timePositionNaut miles runAvg speedWind from/ knotsBaromVisibWave heightAir tempDewpointWater temp
2014-Oct-30 07:21N 43°10' E 009°36'1519.2
2014-Oct-30 06:33N 43°26' E 009°34'1818.4
2014-Oct-30 05:34N 43°42' E 009°45'1616.2
2014-Oct-30 04:33N 43°58' E 009°52'9 8.7
2014-Oct-30 03:31N 44°06' E 009°51'0 0.0
2014-Oct-30 02:33N 44°06' E 009°51'0 0.0
2014-Oct-30 01:33N 44°06' E 009°51'0 0.0
2014-Oct-30 00:33N 44°06' E 009°51'0 0.0
2014-Oct-29 23:33N 44°06' E 009°51'0 0.0
2014-Oct-29 22:33N 44°06' E 009°51'0 0.0
2014-Oct-29 21:33N 44°06' E 009°51'0 0.0
2014-Oct-29 20:33N 44°06' E 009°51'0 0.0
2014-Oct-29 19:33N 44°06' E 009°51'0 0.0
2014-Oct-29 18:33N 44°06' E 009°51'0 0.0
2014-Oct-29 17:33N 44°06' E 009°51'0 0.0
2014-Oct-29 16:33N 44°06' E 009°51'0 0.0
2014-Oct-29 15:33N 44°06' E 009°51'0 0.0
2014-Oct-29 14:33N 44°06' E 009°51'2 1.8
2014-Oct-29 13:33N 44°05' E 009°51'3 3.1
2014-Oct-29 12:32N 44°02' E 009°54'0 0.0
2014-Oct-29 11:32N 44°02' E 009°54'0 0.0
2014-Oct-29 10:32N 44°02' E 009°54'0 0.2
2014-Oct-29 09:32N 44°02' E 009°54'0 0.0
2014-Oct-29 08:32N 44°02' E 009°54'0 0.0
2014-Oct-29 07:32N 44°02' E 009°54'0 0.0
2014-Oct-29 06:32N 44°02' E 009°54'0 0.0
2014-Oct-29 05:32N 44°02' E 009°54'0 0.0
2014-Oct-29 04:32N 44°02' E 009°54'0 0.0
2014-Oct-29 03:32N 44°02' E 009°54'0 0.0
2014-Oct-29 02:32N 44°02' E 009°54'0 0.0
2014-Oct-29 01:32N 44°02' E 009°54'0 0.0
2014-Oct-29 00:32N 44°02' E 009°54'0 0.0
2014-Oct-28 23:32N 44°02' E 009°54'0 0.0
2014-Oct-28 22:32N 44°02' E 009°54'5 4.8
2014-Oct-28 21:33N 43°58' E 009°57'10 9.8
2014-Oct-28 20:33N 43°53' E 009°45'1312.6
2014-Oct-28 19:33N 43°48' E 009°29'1313.0
2014-Oct-28 18:33N 43°44' E 009°12'1313.0
2014-Oct-28 17:33N 43°39' E 008°55'1312.8
2014-Oct-28 16:33N 43°32' E 008°40'7311.6
2014-Oct-28 10:13N 42°51' E 007°17'812.1
2014-Oct-28 09:33N 42°47' E 007°07'14918.6
2014-Oct-28 01:33N 41°25' E 004°20'4220.1
2014-Oct-27 23:28N 41°02' E 003°33'1819.9
2014-Oct-27 22:33N 40°52' E 003°13'2020.0
2014-Oct-27 21:34N 40°41' E 002°51'2020.1
2014-Oct-27 20:33N 40°30' E 002°29'2019.8
2014-Oct-27 19:33N 40°19' E 002°07'2019.9
2014-Oct-27 18:33N 40°08' E 001°46'2020.0
2014-Oct-27 17:33N 39°57' E 001°24'1919.4
2014-Oct-27 16:34N 39°47' E 001°03'6318.5
2014-Oct-27 13:09N 39°25' W 000°14'4 7.1
2014-Oct-27 12:33N 39°26' W 000°19'0 0.1
2014-Oct-27 11:33N 39°26' W 000°19'0 0.0
2014-Oct-27 10:27N 39°26' W 000°19'0 0.0
2014-Oct-27 09:33N 39°26' W 000°19'0 0.0
2014-Oct-27 08:33N 39°26' W 000°19'0 0.0
2014-Oct-27 07:32N 39°26' W 000°19'0 0.5
2014-Oct-27 06:31N 39°26' W 000°19'0 0.0
2014-Oct-27 05:31N 39°26' W 000°19'0 0.0
2014-Oct-27 04:31N 39°26' W 000°19'0 0.0
2014-Oct-27 03:31N 39°26' W 000°19'0 0.0
2014-Oct-27 02:34N 39°26' W 000°19'0 0.0
2014-Oct-27 01:30N 39°26' W 000°19'0 0.0
2014-Oct-27 00:24N 39°26' W 000°19'0 0.0
2014-Oct-26 23:30N 39°26' W 000°19'0 0.0
2014-Oct-26 22:33N 39°26' W 000°19'0 0.0
2014-Oct-26 21:33N 39°26' W 000°19'0 0.0
2014-Oct-26 20:30N 39°26' W 000°19'0 0.0
2014-Oct-26 19:33N 39°26' W 000°19'0 0.0
2014-Oct-26 18:30N 39°26' W 000°19'0 0.0
2014-Oct-26 17:30N 39°26' W 000°19'0 0.0
2014-Oct-26 16:33N 39°26' W 000°19'0 0.0
2014-Oct-26 15:33N 39°26' W 000°19'0 0.0
2014-Oct-26 14:30N 39°26' W 000°19'0 0.0
2014-Oct-26 13:33N 39°26' W 000°19'0 0.0
2014-Oct-26 12:33N 39°26' W 000°19'0 0.0
2014-Oct-26 11:33N 39°26' W 000°19'3 3.0
2014-Oct-26 10:33N 39°25' W 000°15'5714.3
2014-Oct-26 06:33N 38°35' E 000°22'4318.4
2014-Oct-26 04:12N 37°59' W 000°09'1218.2
2014-Oct-26 03:33N 37°49' W 000°17'1818.1
2014-Oct-26 02:33N 37°34' W 000°30'1817.8
2014-Oct-26 01:33N 37°22' W 000°46'22618.1
2014-Oct-25 13:03N 35°60' W 005°09'1019.6
2014-Oct-25 12:33N 35°58' W 005°21'20317.8
2014-Oct-25 01:11N 36°18' W 009°31'1218.7
2014-Oct-25 00:33N 36°23' W 009°44'3718.7
2014-Oct-24 22:33N 36°40' W 010°26'1919.2
2014-Oct-24 21:33N 36°48' W 010°47'3818.9
2014-Oct-24 19:33N 37°05' W 011°30'1918.8
2014-Oct-24 18:33N 37°13' W 011°51'  

Dump ship's entire track history